YYZ weather

Lester B. Pearson International Airport
Toronto, Ontario, Canada

Public forecast

Using degrees Celsius for public forecast. Weather courtesy of forecast.io.

METAR (pilot weather report)

Retrieved 2017/05/25 00:00 UTC (60 minutes ago):

CYYZ 250000Z 08014G21KT 15SM -RA BKN100 OVC140 20/09 A2961 RMK AC5AC3 SLP028 DENSITY ALT 1500FT

TAF (pilot weather forecast)

Forecast is more than 12 hours old.

Retrieved 2017/05/24 00:42 UTC (1 day ago):

TAF CYYZ 242338Z 2500/2606 09012KT P6SM SCT080 OVC150 TEMPO 2500/2502 P6SM -SHRA OVC080 FM250200 09010KT P6SM -SHRA OVC060 FM250600 07008KT P6SM -RA FEW015 OVC030 TEMPO 2506/2509 4SM -RA BR BKN015 OVC030 FM250900 08012KT 4SM -RA BR SCT006 OVC012 PROB30 2509/2511 OVC006 FM251100 08015G25KT 3SM -RA BR OVC006 PROB40 2511/2518 OVC003 FM260400 01010KT 6SM -DZ BR OVC008 RMK NXT FCST BY 250300Z